sensor_id;sensor_type;location;lat;lon;timestamp;P1;durP1;ratioP1;P2;durP2;ratioP2
49678;SDS011;35570;48.218;16.326;2023-08-01T00:01:03;6.28;;;2.30;;
49678;SDS011;35570;48.218;16.326;2023-08-01T00:03:29;5.68;;;2.20;;
49678;SDS011;35570;48.218;16.326;2023-08-01T00:05:54;4.88;;;2.38;;
49678;SDS011;35570;48.218;16.326;2023-08-01T00:08:20;3.17;;;2.20;;
49678;SDS011;35570;48.218;16.326;2023-08-01T00:10:46;3.35;;;2.13;;
49678;SDS011;35570;48.218;16.326;2023-08-01T00:13:12;2.42;;;1.92;;
49678;SDS011;35570;48.218;16.326;2023-08-01T00:15:37;4.13;;;1.83;;
49678;SDS011;35570;48.218;16.326;2023-08-01T00:18:03;3.28;;;2.30;;
49678;SDS011;35570;48.218;16.326;2023-08-01T00:20:30;3.90;;;2.00;;
49678;SDS011;35570;48.218;16.326;2023-08-01T00:22:56;3.40;;;1.85;;
49678;SDS011;35570;48.218;16.326;2023-08-01T00:25:22;3.45;;;2.00;;
49678;SDS011;35570;48.218;16.326;2023-08-01T00:27:48;3.75;;;2.33;;
49678;SDS011;35570;48.218;16.326;2023-08-01T00:30:16;4.93;;;2.67;;
49678;SDS011;35570;48.218;16.326;2023-08-01T00:32:42;2.20;;;1.95;;
49678;SDS011;35570;48.218;16.326;2023-08-01T00:35:08;5.80;;;2.13;;
49678;SDS011;35570;48.218;16.326;2023-08-01T00:37:33;2.45;;;1.75;;
49678;SDS011;35570;48.218;16.326;2023-08-01T00:39:59;4.60;;;2.10;;
49678;SDS011;35570;48.218;16.326;2023-08-01T00:42:24;3.47;;;1.88;;
49678;SDS011;35570;48.218;16.326;2023-08-01T00:44:50;3.33;;;2.00;;
49678;SDS011;35570;48.218;16.326;2023-08-01T00:47:16;3.40;;;2.20;;
49678;SDS011;35570;48.218;16.326;2023-08-01T00:49:43;3.63;;;1.83;;
49678;SDS011;35570;48.218;16.326;2023-08-01T00:52:10;4.32;;;1.90;;
49678;SDS011;35570;48.218;16.326;2023-08-01T00:54:36;2.88;;;1.88;;
49678;SDS011;35570;48.218;16.326;2023-08-01T00:57:03;3.88;;;2.30;;
49678;SDS011;35570;48.218;16.326;2023-08-01T00:59:30;3.45;;;2.08;;
49678;SDS011;35570;48.218;16.326;2023-08-01T01:01:56;5.60;;;2.00;;
49678;SDS011;35570;48.218;16.326;2023-08-01T01:04:24;3.58;;;1.92;;
49678;SDS011;35570;48.218;16.326;2023-08-01T01:06:51;4.53;;;1.95;;
49678;SDS011;35570;48.218;16.326;2023-08-01T01:09:27;2.47;;;1.90;;
49678;SDS011;35570;48.218;16.326;2023-08-01T01:11:54;4.13;;;1.85;;
49678;SDS011;35570;48.218;16.326;2023-08-01T01:14:20;3.20;;;2.10;;
49678;SDS011;35570;48.218;16.326;2023-08-01T01:16:45;2.65;;;1.85;;
49678;SDS011;35570;48.218;16.326;2023-08-01T01:19:11;3.03;;;1.92;;
49678;SDS011;35570;48.218;16.326;2023-08-01T01:21:37;2.92;;;1.92;;
49678;SDS011;35570;48.218;16.326;2023-08-01T01:24:05;3.15;;;1.98;;
49678;SDS011;35570;48.218;16.326;2023-08-01T01:26:34;4.95;;;2.08;;
49678;SDS011;35570;48.218;16.326;2023-08-01T01:29:02;3.35;;;2.28;;
49678;SDS011;35570;48.218;16.326;2023-08-01T01:31:29;3.97;;;2.60;;
49678;SDS011;35570;48.218;16.326;2023-08-01T01:33:55;2.78;;;2.25;;
49678;SDS011;35570;48.218;16.326;2023-08-01T01:36:21;3.90;;;2.38;;
49678;SDS011;35570;48.218;16.326;2023-08-01T01:38:47;4.43;;;2.30;;
49678;SDS011;35570;48.218;16.326;2023-08-01T01:41:12;5.70;;;2.70;;
49678;SDS011;35570;48.218;16.326;2023-08-01T01:43:38;3.03;;;2.20;;
49678;SDS011;35570;48.218;16.326;2023-08-01T01:46:04;3.33;;;2.33;;
49678;SDS011;35570;48.218;16.326;2023-08-01T01:48:29;4.22;;;2.30;;
49678;SDS011;35570;48.218;16.326;2023-08-01T01:50:55;6.05;;;2.30;;
49678;SDS011;35570;48.218;16.326;2023-08-01T01:53:21;2.63;;;2.10;;
49678;SDS011;35570;48.218;16.326;2023-08-01T01:55:46;3.67;;;2.35;;
49678;SDS011;35570;48.218;16.326;2023-08-01T01:58:12;7.22;;;2.30;;
49678;SDS011;35570;48.218;16.326;2023-08-01T02:00:37;5.13;;;1.83;;
49678;SDS011;35570;48.218;16.326;2023-08-01T02:03:03;5.05;;;1.90;;
49678;SDS011;35570;48.218;16.326;2023-08-01T02:05:29;3.88;;;2.42;;
49678;SDS011;35570;48.218;16.326;2023-08-01T02:07:55;3.72;;;2.60;;
49678;SDS011;35570;48.218;16.326;2023-08-01T02:10:21;3.92;;;2.10;;
49678;SDS011;35570;48.218;16.326;2023-08-01T02:12:46;3.83;;;1.98;;
49678;SDS011;35570;48.218;16.326;2023-08-01T02:15:12;4.45;;;2.30;;
49678;SDS011;35570;48.218;16.326;2023-08-01T02:17:37;3.00;;;2.08;;
49678;SDS011;35570;48.218;16.326;2023-08-01T02:20:04;4.30;;;2.25;;
49678;SDS011;35570;48.218;16.326;2023-08-01T02:22:30;5.05;;;2.03;;
49678;SDS011;35570;48.218;16.326;2023-08-01T02:24:55;3.63;;;2.13;;
49678;SDS011;35570;48.218;16.326;2023-08-01T02:27:21;2.85;;;1.92;;
49678;SDS011;35570;48.218;16.326;2023-08-01T02:29:47;2.63;;;1.90;;
49678;SDS011;35570;48.218;16.326;2023-08-01T02:32:14;3.83;;;1.90;;
49678;SDS011;35570;48.218;16.326;2023-08-01T02:34:40;2.72;;;1.58;;
49678;SDS011;35570;48.218;16.326;2023-08-01T02:37:06;3.65;;;1.88;;
49678;SDS011;35570;48.218;16.326;2023-08-01T02:39:31;3.47;;;1.92;;
49678;SDS011;35570;48.218;16.326;2023-08-01T02:41:57;3.17;;;2.10;;
49678;SDS011;35570;48.218;16.326;2023-08-01T02:44:22;2.97;;;1.92;;
49678;SDS011;35570;48.218;16.326;2023-08-01T02:46:48;2.17;;;1.73;;
49678;SDS011;35570;48.218;16.326;2023-08-01T02:49:13;2.58;;;1.98;;
49678;SDS011;35570;48.218;16.326;2023-08-01T02:51:39;3.33;;;2.35;;
49678;SDS011;35570;48.218;16.326;2023-08-01T02:54:05;2.72;;;2.38;;
49678;SDS011;35570;48.218;16.326;2023-08-01T02:56:30;2.72;;;1.73;;
49678;SDS011;35570;48.218;16.326;2023-08-01T02:58:56;4.80;;;1.98;;
49678;SDS011;35570;48.218;16.326;2023-08-01T03:01:22;3.85;;;2.10;;
49678;SDS011;35570;48.218;16.326;2023-08-01T03:03:47;1.85;;;1.55;;
49678;SDS011;35570;48.218;16.326;2023-08-01T03:06:13;3.30;;;1.92;;
49678;SDS011;35570;48.218;16.326;2023-08-01T03:08:40;3.90;;;1.70;;
49678;SDS011;35570;48.218;16.326;2023-08-01T03:11:05;4.68;;;1.92;;
49678;SDS011;35570;48.218;16.326;2023-08-01T03:13:31;2.63;;;1.88;;
49678;SDS011;35570;48.218;16.326;2023-08-01T03:15:57;4.32;;;1.92;;
49678;SDS011;35570;48.218;16.326;2023-08-01T03:18:22;3.97;;;1.70;;
49678;SDS011;35570;48.218;16.326;2023-08-01T03:20:48;1.98;;;1.40;;
49678;SDS011;35570;48.218;16.326;2023-08-01T03:23:13;2.50;;;1.80;;
49678;SDS011;35570;48.218;16.326;2023-08-01T03:25:39;2.53;;;1.70;;
49678;SDS011;35570;48.218;16.326;2023-08-01T03:28:05;4.53;;;2.17;;
49678;SDS011;35570;48.218;16.326;2023-08-01T03:30:31;3.40;;;1.83;;
49678;SDS011;35570;48.218;16.326;2023-08-01T03:32:57;2.83;;;1.83;;
49678;SDS011;35570;48.218;16.326;2023-08-01T03:35:23;4.15;;;1.98;;
49678;SDS011;35570;48.218;16.326;2023-08-01T03:37:49;3.15;;;1.80;;
49678;SDS011;35570;48.218;16.326;2023-08-01T03:40:14;1.77;;;1.58;;
49678;SDS011;35570;48.218;16.326;2023-08-01T03:42:40;4.35;;;2.13;;
49678;SDS011;35570;48.218;16.326;2023-08-01T03:45:06;3.35;;;2.03;;
49678;SDS011;35570;48.218;16.326;2023-08-01T03:47:32;3.15;;;2.05;;
49678;SDS011;35570;48.218;16.326;2023-08-01T03:49:58;3.40;;;1.90;;
49678;SDS011;35570;48.218;16.326;2023-08-01T03:52:24;5.57;;;2.35;;
49678;SDS011;35570;48.218;16.326;2023-08-01T03:54:52;4.60;;;2.20;;
49678;SDS011;35570;48.218;16.326;2023-08-01T03:57:19;4.15;;;2.30;;
49678;SDS011;35570;48.218;16.326;2023-08-01T03:59:45;3.08;;;2.10;;
49678;SDS011;35570;48.218;16.326;2023-08-01T04:02:11;3.83;;;2.13;;
49678;SDS011;35570;48.218;16.326;2023-08-01T04:04:37;3.88;;;2.20;;
49678;SDS011;35570;48.218;16.326;2023-08-01T04:07:03;3.55;;;2.13;;
49678;SDS011;35570;48.218;16.326;2023-08-01T04:09:29;2.85;;;1.90;;
49678;SDS011;35570;48.218;16.326;2023-08-01T04:11:55;3.83;;;2.20;;
49678;SDS011;35570;48.218;16.326;2023-08-01T04:14:20;5.15;;;2.17;;
49678;SDS011;35570;48.218;16.326;2023-08-01T04:16:46;5.60;;;2.33;;
49678;SDS011;35570;48.218;16.326;2023-08-01T04:19:12;4.95;;;2.35;;
49678;SDS011;35570;48.218;16.326;2023-08-01T04:21:38;3.10;;;2.05;;
49678;SDS011;35570;48.218;16.326;2023-08-01T04:24:03;3.40;;;2.22;;
49678;SDS011;35570;48.218;16.326;2023-08-01T04:26:29;3.63;;;2.13;;
49678;SDS011;35570;48.218;16.326;2023-08-01T04:28:55;4.25;;;2.50;;
49678;SDS011;35570;48.218;16.326;2023-08-01T04:31:20;4.50;;;2.67;;
49678;SDS011;35570;48.218;16.326;2023-08-01T04:33:46;3.65;;;2.70;;
49678;SDS011;35570;48.218;16.326;2023-08-01T04:36:12;6.10;;;2.72;;
49678;SDS011;35570;48.218;16.326;2023-08-01T04:38:37;3.83;;;2.97;;
49678;SDS011;35570;48.218;16.326;2023-08-01T04:41:03;5.85;;;2.88;;
49678;SDS011;35570;48.218;16.326;2023-08-01T04:43:29;4.63;;;2.63;;
49678;SDS011;35570;48.218;16.326;2023-08-01T04:45:54;4.35;;;2.78;;
49678;SDS011;35570;48.218;16.326;2023-08-01T04:48:20;4.70;;;3.55;;
49678;SDS011;35570;48.218;16.326;2023-08-01T04:50:45;7.80;;;5.25;;
49678;SDS011;35570;48.218;16.326;2023-08-01T04:53:11;6.03;;;4.65;;
49678;SDS011;35570;48.218;16.326;2023-08-01T04:55:37;7.45;;;4.70;;
49678;SDS011;35570;48.218;16.326;2023-08-01T04:58:03;6.03;;;4.38;;
49678;SDS011;35570;48.218;16.326;2023-08-01T05:00:29;5.53;;;2.58;;
49678;SDS011;35570;48.218;16.326;2023-08-01T05:02:55;5.93;;;2.80;;
49678;SDS011;35570;48.218;16.326;2023-08-01T05:05:20;11.98;;;3.20;;
49678;SDS011;35570;48.218;16.326;2023-08-01T05:07:46;4.28;;;3.00;;
49678;SDS011;35570;48.218;16.326;2023-08-01T05:10:11;5.95;;;2.90;;
49678;SDS011;35570;48.218;16.326;2023-08-01T05:12:37;4.90;;;3.00;;
49678;SDS011;35570;48.218;16.326;2023-08-01T05:15:03;4.32;;;2.88;;
49678;SDS011;35570;48.218;16.326;2023-08-01T05:17:29;5.97;;;3.03;;
49678;SDS011;35570;48.218;16.326;2023-08-01T05:19:54;5.55;;;2.83;;
49678;SDS011;35570;48.218;16.326;2023-08-01T05:22:20;5.47;;;2.92;;
49678;SDS011;35570;48.218;16.326;2023-08-01T05:24:46;4.13;;;2.90;;
49678;SDS011;35570;48.218;16.326;2023-08-01T05:27:11;6.00;;;2.95;;
49678;SDS011;35570;48.218;16.326;2023-08-01T05:29:37;4.95;;;2.88;;
49678;SDS011;35570;48.218;16.326;2023-08-01T05:32:03;4.90;;;2.95;;
49678;SDS011;35570;48.218;16.326;2023-08-01T05:34:29;7.05;;;2.58;;
49678;SDS011;35570;48.218;16.326;2023-08-01T05:36:54;9.55;;;2.92;;
49678;SDS011;35570;48.218;16.326;2023-08-01T05:39:20;4.65;;;3.47;;
49678;SDS011;35570;48.218;16.326;2023-08-01T05:41:46;6.68;;;3.40;;
49678;SDS011;35570;48.218;16.326;2023-08-01T05:44:11;5.13;;;3.33;;
49678;SDS011;35570;48.218;16.326;2023-08-01T05:46:37;6.32;;;2.90;;
49678;SDS011;35570;48.218;16.326;2023-08-01T05:49:02;6.07;;;2.72;;
49678;SDS011;35570;48.218;16.326;2023-08-01T05:51:28;5.55;;;3.45;;
49678;SDS011;35570;48.218;16.326;2023-08-01T05:53:54;5.55;;;3.20;;
49678;SDS011;35570;48.218;16.326;2023-08-01T05:56:19;5.60;;;3.25;;
49678;SDS011;35570;48.218;16.326;2023-08-01T05:58:45;6.82;;;3.05;;
49678;SDS011;35570;48.218;16.326;2023-08-01T06:01:11;6.53;;;3.33;;
49678;SDS011;35570;48.218;16.326;2023-08-01T06:03:38;4.10;;;2.83;;
49678;SDS011;35570;48.218;16.326;2023-08-01T06:06:03;6.03;;;2.90;;
49678;SDS011;35570;48.218;16.326;2023-08-01T06:08:29;10.35;;;3.17;;
49678;SDS011;35570;48.218;16.326;2023-08-01T06:10:55;5.70;;;3.58;;
49678;SDS011;35570;48.218;16.326;2023-08-01T06:13:21;6.15;;;3.80;;
49678;SDS011;35570;48.218;16.326;2023-08-01T06:15:47;5.45;;;2.60;;
49678;SDS011;35570;48.218;16.326;2023-08-01T06:18:12;7.03;;;3.95;;
49678;SDS011;35570;48.218;16.326;2023-08-01T06:20:38;8.40;;;5.22;;
49678;SDS011;35570;48.218;16.326;2023-08-01T06:23:04;9.27;;;6.53;;
49678;SDS011;35570;48.218;16.326;2023-08-01T06:25:30;7.97;;;5.05;;
49678;SDS011;35570;48.218;16.326;2023-08-01T06:27:56;7.05;;;4.28;;
49678;SDS011;35570;48.218;16.326;2023-08-01T06:30:21;4.95;;;3.50;;
49678;SDS011;35570;48.218;16.326;2023-08-01T06:32:47;5.85;;;3.40;;
49678;SDS011;35570;48.218;16.326;2023-08-01T06:35:13;4.90;;;3.47;;
49678;SDS011;35570;48.218;16.326;2023-08-01T06:37:38;6.10;;;3.72;;
49678;SDS011;35570;48.218;16.326;2023-08-01T06:40:04;5.53;;;3.40;;
49678;SDS011;35570;48.218;16.326;2023-08-01T06:42:30;7.30;;;3.03;;
49678;SDS011;35570;48.218;16.326;2023-08-01T06:44:56;6.72;;;3.10;;
49678;SDS011;35570;48.218;16.326;2023-08-01T06:47:21;6.35;;;3.13;;
49678;SDS011;35570;48.218;16.326;2023-08-01T06:49:47;6.60;;;3.42;;
49678;SDS011;35570;48.218;16.326;2023-08-01T06:52:13;7.10;;;3.33;;
49678;SDS011;35570;48.218;16.326;2023-08-01T06:54:38;11.63;;;3.75;;
49678;SDS011;35570;48.218;16.326;2023-08-01T06:57:04;5.70;;;3.45;;
49678;SDS011;35570;48.218;16.326;2023-08-01T06:59:31;6.97;;;3.60;;
49678;SDS011;35570;48.218;16.326;2023-08-01T07:01:58;5.88;;;3.60;;
49678;SDS011;35570;48.218;16.326;2023-08-01T07:04:24;7.70;;;4.28;;
49678;SDS011;35570;48.218;16.326;2023-08-01T07:06:49;11.48;;;4.00;;
49678;SDS011;35570;48.218;16.326;2023-08-01T07:09:15;7.15;;;3.88;;
49678;SDS011;35570;48.218;16.326;2023-08-01T07:11:41;9.20;;;4.93;;
49678;SDS011;35570;48.218;16.326;2023-08-01T07:14:06;7.55;;;4.18;;
49678;SDS011;35570;48.218;16.326;2023-08-01T07:16:32;10.30;;;4.97;;
49678;SDS011;35570;48.218;16.326;2023-08-01T07:18:59;8.00;;;5.93;;
49678;SDS011;35570;48.218;16.326;2023-08-01T07:21:26;12.23;;;9.02;;
49678;SDS011;35570;48.218;16.326;2023-08-01T07:23:52;8.57;;;5.63;;
49678;SDS011;35570;48.218;16.326;2023-08-01T07:26:17;12.48;;;6.78;;
49678;SDS011;35570;48.218;16.326;2023-08-01T07:28:43;10.07;;;4.75;;
49678;SDS011;35570;48.218;16.326;2023-08-01T07:31:08;4.97;;;3.70;;
49678;SDS011;35570;48.218;16.326;2023-08-01T07:33:34;7.55;;;3.67;;
49678;SDS011;35570;48.218;16.326;2023-08-01T07:36:00;5.25;;;3.00;;
49678;SDS011;35570;48.218;16.326;2023-08-01T07:38:26;6.43;;;3.53;;
49678;SDS011;35570;48.218;16.326;2023-08-01T07:40:52;6.57;;;2.90;;
49678;SDS011;35570;48.218;16.326;2023-08-01T07:43:19;5.38;;;3.20;;
49678;SDS011;35570;48.218;16.326;2023-08-01T07:45:45;3.83;;;2.80;;
49678;SDS011;35570;48.218;16.326;2023-08-01T07:48:11;5.47;;;3.20;;
49678;SDS011;35570;48.218;16.326;2023-08-01T07:50:36;5.53;;;2.95;;
49678;SDS011;35570;48.218;16.326;2023-08-01T07:53:02;5.57;;;3.55;;
49678;SDS011;35570;48.218;16.326;2023-08-01T07:55:28;6.13;;;3.22;;
49678;SDS011;35570;48.218;16.326;2023-08-01T07:57:53;3.90;;;2.85;;
49678;SDS011;35570;48.218;16.326;2023-08-01T08:00:19;4.68;;;3.05;;
49678;SDS011;35570;48.218;16.326;2023-08-01T08:02:45;4.70;;;3.13;;
49678;SDS011;35570;48.218;16.326;2023-08-01T08:05:11;4.30;;;3.00;;
49678;SDS011;35570;48.218;16.326;2023-08-01T08:07:37;6.57;;;2.85;;
49678;SDS011;35570;48.218;16.326;2023-08-01T08:10:06;4.95;;;2.75;;
49678;SDS011;35570;48.218;16.326;2023-08-01T08:12:32;4.25;;;3.00;;
49678;SDS011;35570;48.218;16.326;2023-08-01T08:14:57;5.18;;;2.80;;
49678;SDS011;35570;48.218;16.326;2023-08-01T08:17:23;4.40;;;2.83;;
49678;SDS011;35570;48.218;16.326;2023-08-01T08:19:49;7.68;;;3.03;;
49678;SDS011;35570;48.218;16.326;2023-08-01T08:22:14;6.18;;;2.88;;
49678;SDS011;35570;48.218;16.326;2023-08-01T08:24:40;5.65;;;2.92;;
49678;SDS011;35570;48.218;16.326;2023-08-01T08:27:06;6.07;;;2.80;;
49678;SDS011;35570;48.218;16.326;2023-08-01T08:29:31;5.55;;;3.00;;
49678;SDS011;35570;48.218;16.326;2023-08-01T08:31:57;6.47;;;2.90;;
49678;SDS011;35570;48.218;16.326;2023-08-01T08:34:23;6.10;;;3.05;;
49678;SDS011;35570;48.218;16.326;2023-08-01T08:36:49;7.50;;;3.22;;
49678;SDS011;35570;48.218;16.326;2023-08-01T08:39:16;7.95;;;3.80;;
49678;SDS011;35570;48.218;16.326;2023-08-01T08:41:45;7.47;;;3.38;;
49678;SDS011;35570;48.218;16.326;2023-08-01T08:44:13;4.97;;;2.88;;
49678;SDS011;35570;48.218;16.326;2023-08-01T08:46:42;4.95;;;2.78;;
49678;SDS011;35570;48.218;16.326;2023-08-01T08:49:09;6.38;;;3.25;;
49678;SDS011;35570;48.218;16.326;2023-08-01T08:51:36;7.40;;;3.40;;
49678;SDS011;35570;48.218;16.326;2023-08-01T08:54:06;6.60;;;3.30;;
49678;SDS011;35570;48.218;16.326;2023-08-01T08:56:33;5.57;;;2.90;;
49678;SDS011;35570;48.218;16.326;2023-08-01T08:59:00;7.25;;;3.60;;
49678;SDS011;35570;48.218;16.326;2023-08-01T09:01:26;4.20;;;2.70;;
49678;SDS011;35570;48.218;16.326;2023-08-01T09:03:52;4.60;;;2.90;;
49678;SDS011;35570;48.218;16.326;2023-08-01T09:06:24;4.30;;;2.90;;
49678;SDS011;35570;48.218;16.326;2023-08-01T09:09:01;3.92;;;2.60;;
49678;SDS011;35570;48.218;16.326;2023-08-01T09:11:35;5.07;;;3.65;;
49678;SDS011;35570;48.218;16.326;2023-08-01T09:14:07;6.78;;;3.70;;
49678;SDS011;35570;48.218;16.326;2023-08-01T09:16:33;5.75;;;3.80;;
49678;SDS011;35570;48.218;16.326;2023-08-01T09:19:00;7.18;;;3.78;;
49678;SDS011;35570;48.218;16.326;2023-08-01T09:21:25;8.55;;;3.72;;
49678;SDS011;35570;48.218;16.326;2023-08-01T09:23:51;6.53;;;3.33;;
49678;SDS011;35570;48.218;16.326;2023-08-01T09:26:18;6.00;;;3.22;;
49678;SDS011;35570;48.218;16.326;2023-08-01T09:28:57;5.40;;;3.05;;
49678;SDS011;35570;48.218;16.326;2023-08-01T09:31:26;4.90;;;3.35;;
49678;SDS011;35570;48.218;16.326;2023-08-01T09:33:56;5.07;;;3.15;;
49678;SDS011;35570;48.218;16.326;2023-08-01T09:36:22;5.70;;;3.17;;
49678;SDS011;35570;48.218;16.326;2023-08-01T09:38:49;3.58;;;2.58;;
49678;SDS011;35570;48.218;16.326;2023-08-01T09:41:18;5.60;;;2.70;;
49678;SDS011;35570;48.218;16.326;2023-08-01T09:43:45;4.57;;;2.90;;
49678;SDS011;35570;48.218;16.326;2023-08-01T09:46:12;3.50;;;3.20;;
49678;SDS011;35570;48.218;16.326;2023-08-01T09:48:38;12.82;;;7.70;;
49678;SDS011;35570;48.218;16.326;2023-08-01T09:51:05;3.80;;;3.17;;
49678;SDS011;35570;48.218;16.326;2023-08-01T09:53:51;8.50;;;4.65;;
49678;SDS011;35570;48.218;16.326;2023-08-01T09:56:22;5.20;;;4.03;;
49678;SDS011;35570;48.218;16.326;2023-08-01T09:58:49;3.90;;;2.83;;
49678;SDS011;35570;48.218;16.326;2023-08-01T10:01:17;5.85;;;2.92;;
49678;SDS011;35570;48.218;16.326;2023-08-01T10:03:48;7.03;;;3.58;;
49678;SDS011;35570;48.218;16.326;2023-08-01T10:06:19;4.72;;;2.83;;
49678;SDS011;35570;48.218;16.326;2023-08-01T10:08:46;5.00;;;3.20;;
49678;SDS011;35570;48.218;16.326;2023-08-01T10:11:14;7.72;;;2.75;;
49678;SDS011;35570;48.218;16.326;2023-08-01T10:13:42;4.05;;;3.00;;
49678;SDS011;35570;48.218;16.326;2023-08-01T10:16:09;4.38;;;3.08;;
49678;SDS011;35570;48.218;16.326;2023-08-01T10:18:36;5.88;;;2.92;;
49678;SDS011;35570;48.218;16.326;2023-08-01T10:21:03;3.80;;;2.88;;
49678;SDS011;35570;48.218;16.326;2023-08-01T10:23:34;3.70;;;2.78;;
49678;SDS011;35570;48.218;16.326;2023-08-01T10:26:00;4.18;;;2.88;;
49678;SDS011;35570;48.218;16.326;2023-08-01T10:29:11;3.92;;;3.00;;
49678;SDS011;35570;48.218;16.326;2023-08-01T10:31:18;4.28;;;2.83;;
49678;SDS011;35570;48.218;16.326;2023-08-01T10:33:46;3.40;;;2.85;;
49678;SDS011;35570;48.218;16.326;2023-08-01T10:36:16;5.95;;;4.15;;
49678;SDS011;35570;48.218;16.326;2023-08-01T10:38:50;7.43;;;4.63;;
49678;SDS011;35570;48.218;16.326;2023-08-01T10:52:08;4.15;;;3.30;;
49678;SDS011;35570;48.218;16.326;2023-08-01T10:55:00;6.28;;;3.38;;
49678;SDS011;35570;48.218;16.326;2023-08-01T10:57:34;5.60;;;3.28;;
49678;SDS011;35570;48.218;16.326;2023-08-01T11:00:01;5.30;;;2.95;;
49678;SDS011;35570;48.218;16.326;2023-08-01T11:02:30;4.93;;;3.42;;
49678;SDS011;35570;48.218;16.326;2023-08-01T11:04:59;3.97;;;3.03;;
49678;SDS011;35570;48.218;16.326;2023-08-01T11:07:32;4.50;;;3.50;;
49678;SDS011;35570;48.218;16.326;2023-08-01T11:10:03;5.47;;;3.78;;
49678;SDS011;35570;48.218;16.326;2023-08-01T11:12:36;6.03;;;3.42;;
49678;SDS011;35570;48.218;16.326;2023-08-01T11:15:04;4.75;;;3.28;;
49678;SDS011;35570;48.218;16.326;2023-08-01T11:17:32;7.57;;;3.63;;
49678;SDS011;35570;48.218;16.326;2023-08-01T11:20:02;5.40;;;3.20;;
49678;SDS011;35570;48.218;16.326;2023-08-01T11:22:35;5.72;;;3.60;;
49678;SDS011;35570;48.218;16.326;2023-08-01T11:25:02;5.15;;;3.30;;
49678;SDS011;35570;48.218;16.326;2023-08-01T11:27:28;5.50;;;3.90;;
49678;SDS011;35570;48.218;16.326;2023-08-01T11:29:54;4.72;;;3.72;;
49678;SDS011;35570;48.218;16.326;2023-08-01T11:32:20;11.15;;;4.20;;
49678;SDS011;35570;48.218;16.326;2023-08-01T11:34:47;5.80;;;4.15;;
49678;SDS011;35570;48.218;16.326;2023-08-01T11:37:13;6.68;;;3.95;;
49678;SDS011;35570;48.218;16.326;2023-08-01T11:39:40;7.68;;;4.43;;
49678;SDS011;35570;48.218;16.326;2023-08-01T11:42:06;6.90;;;4.40;;
49678;SDS011;35570;48.218;16.326;2023-08-01T11:44:31;7.55;;;4.78;;
49678;SDS011;35570;48.218;16.326;2023-08-01T11:46:57;8.57;;;4.70;;
49678;SDS011;35570;48.218;16.326;2023-08-01T11:49:23;8.57;;;4.60;;
49678;SDS011;35570;48.218;16.326;2023-08-01T11:51:48;6.53;;;4.43;;
49678;SDS011;35570;48.218;16.326;2023-08-01T11:54:15;6.90;;;5.00;;
49678;SDS011;35570;48.218;16.326;2023-08-01T11:56:42;6.47;;;4.20;;
49678;SDS011;35570;48.218;16.326;2023-08-01T11:59:12;7.47;;;4.95;;
49678;SDS011;35570;48.218;16.326;2023-08-01T12:01:43;10.57;;;4.75;;
49678;SDS011;35570;48.218;16.326;2023-08-01T12:04:10;6.22;;;4.00;;
49678;SDS011;35570;48.218;16.326;2023-08-01T12:06:36;8.27;;;5.03;;
49678;SDS011;35570;48.218;16.326;2023-08-01T12:09:11;6.32;;;4.60;;
49678;SDS011;35570;48.218;16.326;2023-08-01T12:11:38;6.97;;;3.95;;
49678;SDS011;35570;48.218;16.326;2023-08-01T12:14:08;7.18;;;4.47;;
49678;SDS011;35570;48.218;16.326;2023-08-01T12:16:39;6.97;;;4.10;;
49678;SDS011;35570;48.218;16.326;2023-08-01T12:19:10;5.93;;;4.22;;
49678;SDS011;35570;48.218;16.326;2023-08-01T12:21:36;6.38;;;4.22;;
49678;SDS011;35570;48.218;16.326;2023-08-01T12:24:02;7.38;;;3.92;;
49678;SDS011;35570;48.218;16.326;2023-08-01T12:26:28;4.25;;;3.35;;
49678;SDS011;35570;48.218;16.326;2023-08-01T12:28:54;7.68;;;3.70;;
49678;SDS011;35570;48.218;16.326;2023-08-01T12:31:20;3.95;;;3.55;;
49678;SDS011;35570;48.218;16.326;2023-08-01T12:33:47;3.72;;;3.40;;
49678;SDS011;35570;48.218;16.326;2023-08-01T12:36:13;4.85;;;3.60;;
49678;SDS011;35570;48.218;16.326;2023-08-01T12:38:39;4.78;;;3.30;;
49678;SDS011;35570;48.218;16.326;2023-08-01T12:41:05;5.28;;;3.88;;
49678;SDS011;35570;48.218;16.326;2023-08-01T12:43:31;6.43;;;4.00;;
49678;SDS011;35570;48.218;16.326;2023-08-01T12:45:57;6.13;;;3.80;;
49678;SDS011;35570;48.218;16.326;2023-08-01T12:48:23;6.22;;;3.83;;
49678;SDS011;35570;48.218;16.326;2023-08-01T12:50:49;3.85;;;3.00;;
49678;SDS011;35570;48.218;16.326;2023-08-01T12:53:15;4.75;;;3.30;;
49678;SDS011;35570;48.218;16.326;2023-08-01T12:55:44;4.03;;;3.30;;
49678;SDS011;35570;48.218;16.326;2023-08-01T12:58:12;8.30;;;4.35;;
49678;SDS011;35570;48.218;16.326;2023-08-01T13:00:39;5.07;;;3.72;;
49678;SDS011;35570;48.218;16.326;2023-08-01T13:03:05;5.18;;;3.53;;
49678;SDS011;35570;48.218;16.326;2023-08-01T13:05:33;6.75;;;4.10;;
49678;SDS011;35570;48.218;16.326;2023-08-01T13:07:59;6.10;;;3.75;;
49678;SDS011;35570;48.218;16.326;2023-08-01T13:10:25;4.82;;;3.47;;
49678;SDS011;35570;48.218;16.326;2023-08-01T13:12:50;6.47;;;3.65;;
49678;SDS011;35570;48.218;16.326;2023-08-01T13:15:16;5.20;;;3.80;;
49678;SDS011;35570;48.218;16.326;2023-08-01T13:17:42;6.13;;;4.10;;
49678;SDS011;35570;48.218;16.326;2023-08-01T13:20:08;5.45;;;3.60;;
49678;SDS011;35570;48.218;16.326;2023-08-01T13:22:33;4.93;;;3.58;;
49678;SDS011;35570;48.218;16.326;2023-08-01T13:24:59;4.60;;;3.60;;
49678;SDS011;35570;48.218;16.326;2023-08-01T13:27:24;5.70;;;3.88;;
49678;SDS011;35570;48.218;16.326;2023-08-01T13:29:50;6.25;;;3.83;;
49678;SDS011;35570;48.218;16.326;2023-08-01T13:32:19;6.85;;;4.15;;
49678;SDS011;35570;48.218;16.326;2023-08-01T13:34:44;6.68;;;4.50;;
49678;SDS011;35570;48.218;16.326;2023-08-01T13:37:11;5.18;;;3.80;;
49678;SDS011;35570;48.218;16.326;2023-08-01T13:39:37;7.53;;;4.20;;
49678;SDS011;35570;48.218;16.326;2023-08-01T13:42:03;5.60;;;3.80;;
49678;SDS011;35570;48.218;16.326;2023-08-01T13:44:29;7.50;;;4.72;;
49678;SDS011;35570;48.218;16.326;2023-08-01T13:46:54;7.03;;;4.05;;
49678;SDS011;35570;48.218;16.326;2023-08-01T13:49:20;6.10;;;4.38;;
49678;SDS011;35570;48.218;16.326;2023-08-01T13:51:45;6.10;;;3.72;;
49678;SDS011;35570;48.218;16.326;2023-08-01T13:54:11;4.97;;;3.67;;
49678;SDS011;35570;48.218;16.326;2023-08-01T13:56:37;5.57;;;3.83;;
49678;SDS011;35570;48.218;16.326;2023-08-01T13:59:03;5.40;;;4.10;;
49678;SDS011;35570;48.218;16.326;2023-08-01T14:01:29;6.28;;;4.50;;
49678;SDS011;35570;48.218;16.326;2023-08-01T14:03:54;6.57;;;4.97;;
49678;SDS011;35570;48.218;16.326;2023-08-01T14:06:20;6.80;;;4.57;;
49678;SDS011;35570;48.218;16.326;2023-08-01T14:08:46;8.57;;;4.88;;
49678;SDS011;35570;48.218;16.326;2023-08-01T14:11:11;8.20;;;6.13;;
49678;SDS011;35570;48.218;16.326;2023-08-01T14:13:37;7.68;;;4.63;;
49678;SDS011;35570;48.218;16.326;2023-08-01T14:16:02;7.72;;;5.30;;
49678;SDS011;35570;48.218;16.326;2023-08-01T14:18:28;8.63;;;4.93;;
49678;SDS011;35570;48.218;16.326;2023-08-01T14:20:54;6.82;;;5.15;;
49678;SDS011;35570;48.218;16.326;2023-08-01T14:23:21;6.50;;;4.78;;
49678;SDS011;35570;48.218;16.326;2023-08-01T14:25:47;8.43;;;4.97;;
49678;SDS011;35570;48.218;16.326;2023-08-01T14:28:13;6.88;;;4.93;;
49678;SDS011;35570;48.218;16.326;2023-08-01T14:30:39;7.85;;;4.82;;
49678;SDS011;35570;48.218;16.326;2023-08-01T14:33:05;6.88;;;4.25;;
49678;SDS011;35570;48.218;16.326;2023-08-01T14:35:33;7.57;;;4.40;;
49678;SDS011;35570;48.218;16.326;2023-08-01T14:38:03;7.47;;;4.93;;
49678;SDS011;35570;48.218;16.326;2023-08-01T14:40:29;7.55;;;5.05;;